Time;durP1;ratioP1;P1;durP2;ratioP2;P2;SDS_P1;SDS_P2;PMS_P1;PMS_P2;Temp;Humidity;BMP_temperature;BMP_pressure;BME280_temperature;BME280_humidity;BME280_pressure;Samples;Min_cycle;Max_cycle;Signal;HPM_P1;HPM_P2
2023/11/05 00:00:04;;;;;;;54.70;24.15;;;;;;;;;;5092897;28;20046;-67
2023/11/05 00:02:38;;;;;;;64.72;24.98;;;;;;;;;;5076658;28;20074;-67
2023/11/05 00:05:04;;;;;;;60.78;24.90;;;;;;;;;;5091994;28;20427;-67
2023/11/05 00:07:30;;;;;;;66.50;23.98;;;;;;;;;;5092076;28;20035;-69
2023/11/05 00:09:55;;;;;;;62.75;25.15;;;;;;;;;;5092177;28;20036;-67
2023/11/05 00:12:21;;;;;;;52.33;22.90;;;;;;;;;;5091945;28;20082;-67
2023/11/05 00:14:46;;;;;;;53.05;22.95;;;;;;;;;;5091991;28;20466;-67
2023/11/05 00:17:12;;;;;;;54.63;22.88;;;;;;;;;;5092105;28;20100;-67
2023/11/05 00:19:38;;;;;;;63.03;24.02;;;;;;;;;;5075008;28;20050;-66
2023/11/05 00:22:03;;;;;;;58.67;23.23;;;;;;;;;;5092951;28;20084;-66
2023/11/05 00:24:29;;;;;;;52.40;22.60;;;;;;;;;;5091781;28;20035;-66
2023/11/05 00:26:54;;;;;;;49.53;23.55;;;;;;;;;;5091634;28;20113;-66
2023/11/05 00:29:20;;;;;;;53.15;23.08;;;;;;;;;;5090989;28;20032;-69
2023/11/05 00:31:46;;;;;;;56.35;23.80;;;;;;;;;;5075044;28;20047;-66
2023/11/05 00:34:12;;;;;;;49.78;23.13;;;;;;;;;;5092781;28;20032;-66
2023/11/05 00:36:41;;;;;;;54.13;23.33;;;;;;;;;;5091892;28;20055;-66
2023/11/05 00:39:09;;;;;;;49.92;22.92;;;;;;;;;;5091656;28;20040;-66
2023/11/05 00:41:35;;;;;;;48.60;22.10;;;;;;;;;;5091614;28;20040;-66
2023/11/05 00:44:02;;;;;;;52.38;24.33;;;;;;;;;;5091601;28;20028;-66
2023/11/05 00:46:29;;;;;;;55.08;22.08;;;;;;;;;;5074797;28;20047;-66
2023/11/05 00:48:56;;;;;;;52.22;22.92;;;;;;;;;;5057983;28;20060;-67
2023/11/05 00:51:21;;;;;;;52.85;22.02;;;;;;;;;;5092848;28;20040;-66
2023/11/05 00:53:49;;;;;;;55.08;24.20;;;;;;;;;;5058458;28;20036;-67
2023/11/05 00:56:17;;;;;;;46.83;22.02;;;;;;;;;;5040528;28;20052;-69
2023/11/05 00:58:45;;;;;;;53.83;22.02;;;;;;;;;;5090460;28;20436;-67
2023/11/05 01:01:12;;;;;;;54.33;23.77;;;;;;;;;;5073776;28;20442;-67
2023/11/05 01:03:39;;;;;;;54.17;22.67;;;;;;;;;;5073261;28;20178;-67
2023/11/05 01:06:05;;;;;;;50.38;22.08;;;;;;;;;;5056330;28;20052;-68
2023/11/05 01:08:31;;;;;;;49.67;22.75;;;;;;;;;;5056360;28;20080;-67
2023/11/05 01:10:58;;;;;;;56.97;23.88;;;;;;;;;;5073278;28;20488;-67
2023/11/05 01:13:24;;;;;;;51.60;23.98;;;;;;;;;;5056516;28;20052;-67
2023/11/05 01:15:50;;;;;;;48.55;21.85;;;;;;;;;;5071939;28;20097;-68
2023/11/05 01:18:15;;;;;;;50.05;21.92;;;;;;;;;;5087427;28;20052;-69
2023/11/05 01:20:41;;;;;;;51.50;23.13;;;;;;;;;;5053779;28;20032;-67
2023/11/05 01:23:06;;;;;;;48.05;20.67;;;;;;;;;;5070701;28;20046;-68
2023/11/05 01:25:32;;;;;;;48.58;21.88;;;;;;;;;;5070598;28;20063;-70
2023/11/05 01:27:58;;;;;;;47.72;21.52;;;;;;;;;;5087359;28;20028;-67
2023/11/05 01:30:23;;;;;;;48.90;21.15;;;;;;;;;;5067672;28;20123;-68
2023/11/05 01:32:49;;;;;;;46.88;22.10;;;;;;;;;;5089080;28;20063;-68
2023/11/05 01:35:15;;;;;;;58.55;23.40;;;;;;;;;;5091196;28;20048;-67
2023/11/05 01:37:42;;;;;;;49.72;21.88;;;;;;;;;;5091085;28;20032;-67
2023/11/05 01:40:08;;;;;;;49.83;22.85;;;;;;;;;;5076325;28;20065;-67
2023/11/05 01:42:33;;;;;;;47.13;21.98;;;;;;;;;;5095097;28;20036;-68
2023/11/05 01:44:59;;;;;;;41.53;20.95;;;;;;;;;;5078196;28;20122;-68
2023/11/05 01:47:25;;;;;;;47.95;22.13;;;;;;;;;;5094788;28;20370;-69
2023/11/05 01:49:50;;;;;;;51.00;22.55;;;;;;;;;;5094445;28;20032;-67
2023/11/05 01:52:16;;;;;;;43.33;22.05;;;;;;;;;;5094965;28;20090;-68
2023/11/05 01:54:42;;;;;;;43.55;21.10;;;;;;;;;;5095423;28;20040;-67
2023/11/05 01:57:08;;;;;;;41.60;21.42;;;;;;;;;;5111408;28;20040;-67
2023/11/05 01:59:33;;;;;;;39.38;20.75;;;;;;;;;;5094260;28;20088;-67
2023/11/05 02:02:00;;;;;;;45.58;19.67;;;;;;;;;;5094566;28;20044;-67
2023/11/05 02:04:27;;;;;;;42.88;20.77;;;;;;;;;;5094361;28;20047;-67
2023/11/05 02:06:53;;;;;;;46.00;21.10;;;;;;;;;;5077472;28;20106;-73
2023/11/05 02:09:19;;;;;;;42.17;19.92;;;;;;;;;;5094404;28;20074;-67
2023/11/05 02:11:44;;;;;;;36.10;19.52;;;;;;;;;;5111202;28;20488;-67
2023/11/05 02:14:14;;;;;;;41.70;20.35;;;;;;;;;;5077409;28;20032;-67
2023/11/05 02:16:41;;;;;;;41.65;20.15;;;;;;;;;;5093935;28;20540;-67
2023/11/05 02:19:07;;;;;;;38.83;19.88;;;;;;;;;;5094015;28;20039;-67
2023/11/05 02:21:33;;;;;;;35.08;19.63;;;;;;;;;;5093982;28;20050;-68
2023/11/05 02:23:58;;;;;;;38.55;20.17;;;;;;;;;;5076319;28;20036;-68
2023/11/05 02:26:24;;;;;;;38.03;19.25;;;;;;;;;;5094021;28;20040;-67
2023/11/05 02:28:50;;;;;;;34.80;19.05;;;;;;;;;;5094199;28;20028;-67
2023/11/05 02:31:15;;;;;;;29.85;18.45;;;;;;;;;;5093927;28;20051;-67
2023/11/05 02:33:42;;;;;;;37.08;18.23;;;;;;;;;;5110624;28;20039;-67
2023/11/05 02:36:09;;;;;;;33.08;18.08;;;;;;;;;;5094388;28;20048;-68
2023/11/05 02:38:35;;;;;;;31.55;18.55;;;;;;;;;;5093849;28;20043;-68
2023/11/05 02:41:01;;;;;;;29.10;17.13;;;;;;;;;;5076958;28;20039;-67
2023/11/05 02:43:26;;;;;;;30.40;17.38;;;;;;;;;;5093402;28;20028;-73
2023/11/05 02:45:52;;;;;;;35.03;19.30;;;;;;;;;;5076829;28;20040;-78
2023/11/05 02:48:17;;;;;;;31.25;18.30;;;;;;;;;;5094775;28;20455;-68
2023/11/05 02:50:45;;;;;;;35.58;17.17;;;;;;;;;;5092871;28;20567;-67
2023/11/05 02:53:15;;;;;;;30.45;17.50;;;;;;;;;;5094097;28;20107;-69
2023/11/05 02:55:44;;;;;;;28.50;16.05;;;;;;;;;;5093391;28;20516;-68
2023/11/05 02:58:14;;;;;;;28.23;16.98;;;;;;;;;;5093629;28;20039;-68
2023/11/05 03:00:40;;;;;;;25.65;16.58;;;;;;;;;;5094227;28;20078;-68
2023/11/05 03:03:06;;;;;;;25.75;15.98;;;;;;;;;;5076369;28;20067;-67
2023/11/05 03:05:31;;;;;;;24.02;16.13;;;;;;;;;;5110446;28;20044;-67
2023/11/05 03:07:57;;;;;;;24.88;16.08;;;;;;;;;;5093404;28;20046;-68
2023/11/05 03:10:22;;;;;;;25.75;15.10;;;;;;;;;;5093624;28;20116;-69
2023/11/05 03:12:48;;;;;;;21.00;14.07;;;;;;;;;;5076483;28;20148;-68
2023/11/05 03:15:14;;;;;;;24.92;15.25;;;;;;;;;;5076535;28;20079;-68
2023/11/05 03:17:39;;;;;;;21.58;14.10;;;;;;;;;;5059653;28;20078;-67
2023/11/05 03:20:09;;;;;;;21.02;14.32;;;;;;;;;;5076272;28;20067;-67
2023/11/05 03:22:35;;;;;;;23.73;14.90;;;;;;;;;;5076371;28;20532;-67
2023/11/05 03:25:01;;;;;;;21.30;14.85;;;;;;;;;;5093057;28;20035;-67
2023/11/05 03:27:30;;;;;;;19.23;13.35;;;;;;;;;;5093662;28;20123;-67
2023/11/05 03:29:56;;;;;;;21.55;14.00;;;;;;;;;;5076107;28;20135;-67
2023/11/05 03:32:22;;;;;;;20.08;13.73;;;;;;;;;;5076570;28;20036;-67
2023/11/05 03:34:47;;;;;;;21.17;13.57;;;;;;;;;;5092514;28;20044;-67
2023/11/05 03:37:14;;;;;;;19.83;13.32;;;;;;;;;;5092634;28;20058;-67
2023/11/05 03:39:40;;;;;;;21.38;13.57;;;;;;;;;;5094027;28;20039;-67
2023/11/05 03:42:07;;;;;;;23.85;13.15;;;;;;;;;;5076348;28;20481;-66
2023/11/05 03:44:34;;;;;;;19.67;12.82;;;;;;;;;;5092896;28;20051;-67
2023/11/05 03:47:00;;;;;;;16.35;13.27;;;;;;;;;;5093901;28;20363;-66
2023/11/05 03:49:26;;;;;;;18.25;12.60;;;;;;;;;;5075299;28;20071;-72
2023/11/05 03:51:51;;;;;;;20.17;12.10;;;;;;;;;;5093594;28;20428;-66
2023/11/05 03:54:17;;;;;;;15.25;11.48;;;;;;;;;;5093160;28;20036;-68
2023/11/05 03:56:43;;;;;;;15.95;11.00;;;;;;;;;;5093138;28;20036;-66
2023/11/05 03:59:08;;;;;;;16.58;11.75;;;;;;;;;;5092123;28;20063;-67
2023/11/05 04:01:34;;;;;;;14.35;11.48;;;;;;;;;;5109200;28;20040;-67
2023/11/05 04:04:00;;;;;;;14.93;12.05;;;;;;;;;;5092009;28;20032;-67
2023/11/05 04:06:26;;;;;;;14.18;10.70;;;;;;;;;;5092585;28;20043;-73
2023/11/05 04:08:52;;;;;;;15.23;11.48;;;;;;;;;;5093347;28;20032;-67
2023/11/05 04:11:19;;;;;;;14.93;11.18;;;;;;;;;;5091789;28;20476;-67
2023/11/05 04:13:45;;;;;;;17.83;11.57;;;;;;;;;;5091796;28;20040;-69
2023/11/05 04:16:10;;;;;;;16.20;11.10;;;;;;;;;;5091805;28;20132;-70
2023/11/05 04:18:36;;;;;;;15.73;10.50;;;;;;;;;;5074853;28;20440;-70
2023/11/05 04:21:01;;;;;;;13.20;10.02;;;;;;;;;;5091526;28;20487;-71
2023/11/05 04:23:27;;;;;;;15.63;10.88;;;;;;;;;;5075104;28;20100;-72
2023/11/05 04:25:53;;;;;;;13.82;10.02;;;;;;;;;;5091976;28;20458;-67
2023/11/05 04:28:18;;;;;;;11.90;9.70;;;;;;;;;;5074806;28;20125;-67
2023/11/05 04:30:44;;;;;;;14.25;10.43;;;;;;;;;;5091214;28;20039;-67
2023/11/05 04:33:10;;;;;;;14.82;9.90;;;;;;;;;;5092407;28;20535;-67
2023/11/05 04:35:36;;;;;;;15.50;9.82;;;;;;;;;;5092298;28;20131;-67
2023/11/05 04:38:01;;;;;;;12.95;9.30;;;;;;;;;;5091305;28;20036;-65
2023/11/05 04:40:27;;;;;;;16.38;10.07;;;;;;;;;;5074786;28;20036;-66
2023/11/05 04:42:53;;;;;;;13.38;9.70;;;;;;;;;;5092140;28;20390;-67
2023/11/05 04:45:20;;;;;;;18.70;9.82;;;;;;;;;;5091386;28;20595;-68
2023/11/05 04:47:45;;;;;;;10.48;8.73;;;;;;;;;;5074153;28;20059;-66
2023/11/05 04:50:12;;;;;;;10.55;8.32;;;;;;;;;;5092072;28;20382;-67
2023/11/05 04:52:38;;;;;;;12.95;9.70;;;;;;;;;;5090904;28;20035;-68
2023/11/05 04:55:04;;;;;;;12.25;8.55;;;;;;;;;;5091081;28;20097;-67
2023/11/05 04:57:30;;;;;;;12.73;8.73;;;;;;;;;;5092120;28;20042;-68
2023/11/05 04:59:56;;;;;;;16.48;8.48;;;;;;;;;;5074411;28;20032;-67
2023/11/05 05:02:21;;;;;;;11.90;8.70;;;;;;;;;;5091027;28;20032;-67
2023/11/05 05:04:47;;;;;;;10.85;7.97;;;;;;;;;;5090870;28;20059;-67
2023/11/05 05:07:14;;;;;;;12.23;8.75;;;;;;;;;;5091051;28;20193;-70
2023/11/05 05:09:40;;;;;;;12.20;8.60;;;;;;;;;;5090688;28;20028;-67
2023/11/05 05:12:06;;;;;;;13.40;8.10;;;;;;;;;;5090892;28;20495;-67
2023/11/05 05:14:32;;;;;;;10.77;8.02;;;;;;;;;;5091075;28;20032;-70
2023/11/05 05:16:58;;;;;;;12.43;8.32;;;;;;;;;;5091180;28;20096;-70
2023/11/05 05:19:23;;;;;;;12.48;8.70;;;;;;;;;;5074203;28;20136;-69
2023/11/05 05:21:49;;;;;;;10.38;8.43;;;;;;;;;;5073961;28;20589;-69
2023/11/05 05:24:15;;;;;;;10.13;8.07;;;;;;;;;;5090757;28;20127;-71
2023/11/05 05:26:41;;;;;;;11.38;8.38;;;;;;;;;;5090773;28;20059;-68
2023/11/05 05:29:07;;;;;;;12.00;8.10;;;;;;;;;;5090864;28;20327;-68
2023/11/05 05:31:33;;;;;;;11.88;8.07;;;;;;;;;;5090556;28;20071;-69
2023/11/05 05:33:59;;;;;;;11.20;7.70;;;;;;;;;;5057559;28;20177;-68
2023/11/05 05:36:25;;;;;;;13.57;8.00;;;;;;;;;;5091362;28;20545;-70
2023/11/05 05:38:51;;;;;;;10.50;8.20;;;;;;;;;;5079123;28;20052;-71
2023/11/05 05:41:18;;;;;;;13.88;8.85;;;;;;;;;;5088988;28;20043;-72
2023/11/05 05:43:44;;;;;;;10.15;7.90;;;;;;;;;;5072494;28;20040;-71
2023/11/05 05:46:16;;;;;;;12.98;9.07;;;;;;;;;;5090620;28;20466;-72
2023/11/05 05:48:43;;;;;;;9.70;7.65;;;;;;;;;;5087656;28;20063;-70
2023/11/05 05:51:09;;;;;;;11.98;7.82;;;;;;;;;;5071395;28;20485;-73
2023/11/05 05:53:35;;;;;;;12.85;7.72;;;;;;;;;;5071295;28;20326;-69
2023/11/05 05:56:01;;;;;;;10.00;7.50;;;;;;;;;;5083564;28;20063;-70
2023/11/05 05:58:26;;;;;;;13.43;8.23;;;;;;;;;;5049844;28;20114;-71
2023/11/05 06:00:57;;;;;;;9.68;7.57;;;;;;;;;;5066931;28;20043;-73
2023/11/05 06:03:28;;;;;;;11.43;7.43;;;;;;;;;;5072456;28;20040;-71
2023/11/05 06:05:54;;;;;;;10.23;7.32;;;;;;;;;;5054765;28;20407;-70
2023/11/05 06:08:22;;;;;;;9.35;7.38;;;;;;;;;;5067599;28;20044;-72
2023/11/05 06:10:49;;;;;;;9.27;7.38;;;;;;;;;;5051964;28;20032;-72
2023/11/05 06:13:15;;;;;;;11.48;7.30;;;;;;;;;;5046767;28;20066;-73
2023/11/05 06:15:41;;;;;;;9.15;7.20;;;;;;;;;;5050674;28;20045;-69
2023/11/05 06:18:06;;;;;;;10.23;7.13;;;;;;;;;;5050342;28;20364;-69
2023/11/05 06:20:32;;;;;;;10.02;7.60;;;;;;;;;;5058192;28;20481;-70
2023/11/05 06:22:58;;;;;;;9.55;7.03;;;;;;;;;;5062420;28;20032;-71
2023/11/05 06:25:23;;;;;;;12.38;7.30;;;;;;;;;;5031210;28;20473;-70
2023/11/05 06:27:49;;;;;;;14.45;7.65;;;;;;;;;;5066214;28;20032;-68
2023/11/05 06:30:16;;;;;;;10.73;7.45;;;;;;;;;;5054572;28;20043;-67
2023/11/05 06:32:42;;;;;;;12.32;6.57;;;;;;;;;;5089901;28;20326;-68
2023/11/05 06:38:00;;;;;;;9.75;6.75;;;;;;;;;;5104076;28;20419;-68
2023/11/05 06:40:25;;;;;;;8.85;6.53;;;;;;;;;;5076130;28;20074;-73
2023/11/05 06:42:51;;;;;;;9.48;7.00;;;;;;;;;;5093818;28;20043;-74
2023/11/05 06:45:18;;;;;;;10.65;6.50;;;;;;;;;;5094103;28;20354;-74
2023/11/05 06:47:43;;;;;;;12.05;6.70;;;;;;;;;;5097880;28;20062;-73
2023/11/05 06:50:10;;;;;;;11.98;6.28;;;;;;;;;;5112055;28;20422;-73
2023/11/05 06:52:37;;;;;;;8.65;6.18;;;;;;;;;;5112234;28;20038;-75
2023/11/05 06:55:03;;;;;;;17.98;6.07;;;;;;;;;;5094781;28;20431;-73
2023/11/05 06:57:33;;;;;;;13.88;6.60;;;;;;;;;;5095999;28;20065;-74
2023/11/05 06:59:59;;;;;;;13.63;6.50;;;;;;;;;;5087154;28;20111;-73
2023/11/05 07:02:26;;;;;;;12.00;7.07;;;;;;;;;;5091933;28;20036;-71
2023/11/05 07:04:52;;;;;;;10.63;7.00;;;;;;;;;;5087906;28;20082;-73
2023/11/05 07:07:17;;;;;;;9.93;6.25;;;;;;;;;;5108503;28;20123;-74
2023/11/05 07:09:43;;;;;;;10.63;6.18;;;;;;;;;;5056882;28;20040;-74
2023/11/05 07:12:11;;;;;;;9.38;6.10;;;;;;;;;;5108589;28;20075;-74
2023/11/05 07:14:36;;;;;;;9.43;6.43;;;;;;;;;;5090836;28;20031;-75
2023/11/05 07:17:04;;;;;;;8.30;5.50;;;;;;;;;;5109408;28;20386;-73
2023/11/05 07:19:30;;;;;;;8.90;6.50;;;;;;;;;;5092107;28;20028;-74
2023/11/05 07:21:56;;;;;;;18.50;6.30;;;;;;;;;;5092027;28;20043;-73
2023/11/05 07:24:24;;;;;;;9.85;6.10;;;;;;;;;;5092213;28;20084;-74
2023/11/05 07:26:50;;;;;;;9.68;6.10;;;;;;;;;;5087978;28;20399;-73
2023/11/05 07:29:16;;;;;;;10.25;6.53;;;;;;;;;;5070207;28;20044;-74
2023/11/05 07:31:45;;;;;;;9.57;6.18;;;;;;;;;;5053900;28;20044;-73
2023/11/05 07:34:13;;;;;;;;;;;;;;;;;;5021820;28;20047;-73
2023/11/05 07:36:38;;;;;;;9.40;6.50;;;;;;;;;;5070323;28;19920;-73
2023/11/05 07:39:07;;;;;;;12.80;6.28;;;;;;;;;;5053332;28;20158;-73
2023/11/05 07:41:32;;;;;;;13.65;6.90;;;;;;;;;;5037268;28;20036;-74
2023/11/05 07:44:02;;;;;;;9.38;6.40;;;;;;;;;;5037264;28;20166;-72
2023/11/05 07:46:29;;;;;;;11.90;6.45;;;;;;;;;;5053970;28;20036;-73
2023/11/05 07:49:01;;;;;;;13.07;6.20;;;;;;;;;;5053899;28;20075;-73
2023/11/05 07:51:27;;;;;;;9.55;6.03;;;;;;;;;;5053194;28;20036;-73
2023/11/05 07:53:55;;;;;;;9.75;5.75;;;;;;;;;;5053859;28;20040;-73
2023/11/05 07:56:25;;;;;;;9.68;5.68;;;;;;;;;;5053410;28;20147;-74
2023/11/05 07:58:50;;;;;;;9.82;6.18;;;;;;;;;;5072466;28;20182;-73
2023/11/05 08:01:16;;;;;;;11.73;6.45;;;;;;;;;;5107828;28;20366;-75
2023/11/05 08:03:42;;;;;;;8.15;5.88;;;;;;;;;;5108088;28;20079;-73
2023/11/05 08:06:08;;;;;;;9.88;6.05;;;;;;;;;;5039923;28;20063;-73
2023/11/05 08:08:35;;;;;;;11.63;6.20;;;;;;;;;;5092393;28;20488;-80
2023/11/05 08:11:03;;;;;;;15.48;6.35;;;;;;;;;;5092737;28;20036;-77
2023/11/05 08:13:34;;;;;;;11.82;5.93;;;;;;;;;;5094182;28;20047;-77
2023/11/05 08:16:05;;;;;;;10.73;6.55;;;;;;;;;;5106281;28;20054;-77
2023/11/05 08:18:38;;;;;;;11.43;6.07;;;;;;;;;;5111368;28;20042;-77
2023/11/05 08:21:09;;;;;;;17.77;6.03;;;;;;;;;;5111737;28;20081;-77
2023/11/05 08:23:37;;;;;;;11.85;5.47;;;;;;;;;;5079233;28;20050;-76
2023/11/05 08:26:03;;;;;;;11.75;5.95;;;;;;;;;;5086666;28;20044;-75
2023/11/05 08:28:29;;;;;;;17.25;7.05;;;;;;;;;;5096700;28;20043;-76
2023/11/05 08:33:49;;;;;;;11.77;5.60;;;;;;;;;;5103340;28;20043;-75
2023/11/05 08:36:17;;;;;;;11.00;5.88;;;;;;;;;;5098452;28;20051;-76
2023/11/05 08:39:23;;;;;;;13.43;5.97;;;;;;;;;;5104587;28;20444;-75
2023/11/05 08:41:49;;;;;;;8.60;5.28;;;;;;;;;;5084716;28;20035;-74
2023/11/05 08:44:24;;;;;;;11.80;5.85;;;;;;;;;;5092945;28;20047;-75
2023/11/05 08:46:53;;;;;;;10.02;5.57;;;;;;;;;;5102490;28;20035;-75
2023/11/05 08:49:28;;;;;;;10.40;5.00;;;;;;;;;;5069002;28;20133;-78
2023/11/05 08:51:58;;;;;;;13.13;4.80;;;;;;;;;;5052471;28;20051;-78
2023/11/05 08:54:24;;;;;;;11.70;4.97;;;;;;;;;;5034804;28;20111;-76
2023/11/05 08:56:50;;;;;;;9.32;4.20;;;;;;;;;;5042498;28;20072;-74
2023/11/05 08:59:26;;;;;;;7.32;4.70;;;;;;;;;;5017584;28;20080;-75
2023/11/05 09:01:53;;;;;;;11.52;4.50;;;;;;;;;;5035712;28;20040;-77
2023/11/05 09:04:20;;;;;;;8.02;4.28;;;;;;;;;;5037401;28;20037;-78
2023/11/05 09:06:47;;;;;;;10.93;4.80;;;;;;;;;;5052876;28;20045;-76
2023/11/05 09:09:15;;;;;;;6.32;4.47;;;;;;;;;;5022400;28;20161;-76
2023/11/05 09:11:42;;;;;;;11.70;4.50;;;;;;;;;;5039230;28;20037;-79
2023/11/05 09:14:08;;;;;;;8.73;4.82;;;;;;;;;;5017109;28;20049;-76
2023/11/05 09:16:33;;;;;;;9.05;5.22;;;;;;;;;;5016088;28;20511;-78
2023/11/05 09:19:03;;;;;;;9.90;4.90;;;;;;;;;;5030839;28;20040;-77
2023/11/05 09:21:30;;;;;;;13.35;4.93;;;;;;;;;;5018709;28;20043;-78
2023/11/05 09:23:56;;;;;;;8.20;4.47;;;;;;;;;;5073216;28;20062;-78
2023/11/05 09:26:23;;;;;;;8.38;5.00;;;;;;;;;;5063547;28;20099;-78
2023/11/05 09:28:50;;;;;;;10.77;4.88;;;;;;;;;;5081724;28;20040;-77
2023/11/05 09:31:18;;;;;;;7.05;4.50;;;;;;;;;;5064369;28;20078;-78
2023/11/05 09:33:44;;;;;;;14.38;5.63;;;;;;;;;;5061492;28;20052;-78
2023/11/05 09:36:15;;;;;;;9.82;5.30;;;;;;;;;;5046369;28;20056;-79
2023/11/05 09:38:43;;;;;;;9.90;5.47;;;;;;;;;;5061019;28;20040;-78
2023/11/05 09:41:13;;;;;;;9.75;4.93;;;;;;;;;;5042493;28;20069;-77
2023/11/05 09:43:39;;;;;;;12.68;5.13;;;;;;;;;;5091355;28;20121;-78
2023/11/05 09:46:04;;;;;;;14.20;5.40;;;;;;;;;;5074078;28;20043;-78
2023/11/05 09:48:31;;;;;;;10.63;5.07;;;;;;;;;;5073883;28;20059;-77
2023/11/05 09:50:57;;;;;;;11.00;5.50;;;;;;;;;;5090998;28;20047;-78
2023/11/05 09:53:26;;;;;;;11.27;5.28;;;;;;;;;;5074153;28;20070;-79
2023/11/05 09:55:52;;;;;;;10.43;5.13;;;;;;;;;;5074667;28;20138;-78
2023/11/05 09:58:18;;;;;;;13.50;5.60;;;;;;;;;;5075868;28;20042;-78
2023/11/05 10:00:44;;;;;;;10.73;5.93;;;;;;;;;;5061056;28;20119;-78
2023/11/05 10:03:12;;;;;;;9.70;5.22;;;;;;;;;;5064608;28;20066;-76
2023/11/05 10:05:40;;;;;;;9.57;5.57;;;;;;;;;;5101257;28;20477;-78
2023/11/05 10:08:08;;;;;;;15.25;5.60;;;;;;;;;;5120959;28;20036;-79
2023/11/05 10:10:36;;;;;;;12.85;5.28;;;;;;;;;;5103917;28;20058;-78
2023/11/05 10:13:05;;;;;;;15.10;5.00;;;;;;;;;;5102600;28;20051;-78
2023/11/05 10:15:34;;;;;;;9.10;5.22;;;;;;;;;;5099628;28;20398;-79
2023/11/05 10:17:59;;;;;;;9.65;4.75;;;;;;;;;;5116304;28;20188;-79
2023/11/05 10:20:25;;;;;;;11.55;5.00;;;;;;;;;;5099373;28;20561;-79
2023/11/05 10:23:01;;;;;;;18.30;5.47;;;;;;;;;;5117886;28;20089;-78
2023/11/05 10:25:28;;;;;;;11.80;4.80;;;;;;;;;;5080369;28;20040;-79
2023/11/05 10:27:55;;;;;;;9.45;4.95;;;;;;;;;;5081136;28;20067;-78
2023/11/05 10:30:21;;;;;;;7.90;4.70;;;;;;;;;;5082678;28;20051;-79
2023/11/05 10:32:49;;;;;;;14.35;6.00;;;;;;;;;;5066350;28;20044;-79
2023/11/05 10:35:18;;;;;;;12.63;5.25;;;;;;;;;;5050825;28;20056;-78
2023/11/05 10:37:47;;;;;;;12.20;5.18;;;;;;;;;;5083329;28;20036;-77
2023/11/05 10:40:16;;;;;;;13.63;5.65;;;;;;;;;;5085229;28;20092;-77
2023/11/05 10:42:45;;;;;;;15.38;5.95;;;;;;;;;;5025562;28;20152;-78
2023/11/05 10:45:14;;;;;;;9.80;5.32;;;;;;;;;;5041770;28;20068;-78
2023/11/05 10:47:41;;;;;;;13.30;5.50;;;;;;;;;;5025220;28;20061;-77
2023/11/05 10:50:10;;;;;;;10.20;5.35;;;;;;;;;;5020284;28;20061;-79
2023/11/05 10:52:38;;;;;;;13.43;5.97;;;;;;;;;;5036424;28;20041;-79
2023/11/05 10:55:05;;;;;;;10.55;4.85;;;;;;;;;;5020081;28;20037;-79
2023/11/05 10:57:40;;;;;;;13.77;5.78;;;;;;;;;;5059730;28;20056;-79
2023/11/05 11:00:11;;;;;;;15.98;6.00;;;;;;;;;;5079955;28;20028;-78
2023/11/05 11:02:39;;;;;;;13.90;5.25;;;;;;;;;;5059248;28;20131;-78
2023/11/05 11:05:06;;;;;;;17.52;6.65;;;;;;;;;;5075425;28;20049;-79
2023/11/05 11:07:33;;;;;;;18.30;5.72;;;;;;;;;;5075362;28;20048;-80
2023/11/05 11:09:58;;;;;;;12.32;5.90;;;;;;;;;;5057791;28;20032;-78
2023/11/05 11:12:31;;;;;;;12.27;6.10;;;;;;;;;;5072911;28;20127;-78
2023/11/05 11:14:57;;;;;;;14.13;5.72;;;;;;;;;;5080340;28;20028;-78
2023/11/05 11:17:31;;;;;;;19.35;5.95;;;;;;;;;;5114983;28;20038;-78
2023/11/05 11:19:57;;;;;;;16.17;5.47;;;;;;;;;;5114434;28;20042;-78
2023/11/05 11:22:39;;;;;;;15.32;5.60;;;;;;;;;;5114018;28;20039;-79
2023/11/05 11:25:05;;;;;;;15.90;6.07;;;;;;;;;;5096987;28;20081;-79
2023/11/05 11:27:31;;;;;;;17.98;5.82;;;;;;;;;;5097087;28;20374;-79
2023/11/05 11:29:57;;;;;;;18.25;6.38;;;;;;;;;;5113774;28;20035;-78
2023/11/05 11:32:23;;;;;;;15.43;5.93;;;;;;;;;;5080304;28;20039;-79
2023/11/05 11:34:48;;;;;;;15.82;6.35;;;;;;;;;;5114567;28;20416;-78
2023/11/05 11:37:17;;;;;;;15.85;6.15;;;;;;;;;;5099337;28;20453;-78
2023/11/05 11:39:42;;;;;;;11.18;6.13;;;;;;;;;;5096930;28;20023;-78
2023/11/05 11:42:09;;;;;;;19.95;6.57;;;;;;;;;;5113728;28;20042;-78
2023/11/05 11:44:35;;;;;;;15.77;6.38;;;;;;;;;;5096577;28;20207;-78
2023/11/05 11:47:02;;;;;;;16.75;6.35;;;;;;;;;;5114307;28;20047;-78
2023/11/05 11:49:30;;;;;;;14.93;6.80;;;;;;;;;;5114330;28;20552;-78
2023/11/05 11:51:56;;;;;;;14.30;6.47;;;;;;;;;;5119120;28;20449;-78
2023/11/05 11:54:28;;;;;;;22.35;6.80;;;;;;;;;;5114989;28;20039;-78
2023/11/05 11:56:54;;;;;;;18.08;7.13;;;;;;;;;;5100614;28;20505;-78
2023/11/05 11:59:22;;;;;;;14.65;6.32;;;;;;;;;;5098010;28;20330;-78
2023/11/05 12:01:48;;;;;;;13.25;6.22;;;;;;;;;;5098219;28;20040;-78
2023/11/05 12:04:15;;;;;;;22.85;6.35;;;;;;;;;;5077186;28;20097;-78
2023/11/05 12:06:43;;;;;;;13.75;6.57;;;;;;;;;;5093742;28;20424;-78
2023/11/05 12:09:18;;;;;;;20.08;7.28;;;;;;;;;;5092882;28;20047;-79
2023/11/05 12:11:44;;;;;;;14.13;6.18;;;;;;;;;;5092906;28;20035;-78
2023/11/05 12:14:11;;;;;;;12.95;6.38;;;;;;;;;;5092854;28;20032;-79
2023/11/05 12:16:38;;;;;;;12.32;6.53;;;;;;;;;;5093563;28;20043;-77
2023/11/05 12:19:05;;;;;;;17.33;6.38;;;;;;;;;;5109076;28;20067;-77
2023/11/05 12:21:31;;;;;;;19.50;6.97;;;;;;;;;;5092347;28;20105;-78
2023/11/05 12:23:58;;;;;;;13.40;6.35;;;;;;;;;;5092228;28;20036;-78
2023/11/05 12:26:26;;;;;;;17.40;7.18;;;;;;;;;;5093567;28;20153;-78
2023/11/05 12:28:53;;;;;;;14.57;6.47;;;;;;;;;;5075463;28;20467;-79
2023/11/05 12:31:23;;;;;;;17.58;6.75;;;;;;;;;;5092491;28;20344;-78
2023/11/05 12:33:49;;;;;;;26.38;7.28;;;;;;;;;;5092946;28;20059;-78
2023/11/05 12:36:15;;;;;;;22.65;6.82;;;;;;;;;;5092349;28;20510;-78
2023/11/05 12:38:40;;;;;;;17.58;7.35;;;;;;;;;;5074850;28;20032;-79
2023/11/05 12:41:06;;;;;;;23.08;6.95;;;;;;;;;;5092808;28;20178;-79
2023/11/05 12:43:32;;;;;;;21.15;7.05;;;;;;;;;;5108824;28;20024;-78
2023/11/05 12:46:01;;;;;;;19.95;7.05;;;;;;;;;;5093052;28;20040;-78
2023/11/05 12:48:28;;;;;;;14.07;6.45;;;;;;;;;;5096064;28;20364;-78
2023/11/05 12:50:53;;;;;;;18.63;7.13;;;;;;;;;;5095858;28;20089;-77
2023/11/05 12:53:22;;;;;;;14.07;6.50;;;;;;;;;;5096119;28;20048;-75
2023/11/05 12:55:49;;;;;;;15.57;6.97;;;;;;;;;;5092452;28;20046;-77
2023/11/05 12:58:14;;;;;;;16.02;6.88;;;;;;;;;;5092230;28;20150;-78
2023/11/05 13:00:40;;;;;;;19.45;7.78;;;;;;;;;;5109122;28;20063;-79
2023/11/05 13:03:06;;;;;;;19.92;6.65;;;;;;;;;;5092261;28;20047;-78
2023/11/05 13:05:33;;;;;;;15.00;6.25;;;;;;;;;;5091875;28;20109;-78
2023/11/05 13:07:59;;;;;;;14.70;6.57;;;;;;;;;;5092553;28;20075;-78
2023/11/05 13:10:25;;;;;;;17.83;6.80;;;;;;;;;;5092865;28;20096;-78
2023/11/05 13:12:51;;;;;;;18.25;6.30;;;;;;;;;;5093261;28;20039;-76
2023/11/05 13:15:17;;;;;;;13.23;6.70;;;;;;;;;;5109781;28;20040;-78
2023/11/05 13:17:44;;;;;;;15.38;7.13;;;;;;;;;;5093214;28;20035;-78
2023/11/05 13:20:11;;;;;;;13.88;6.45;;;;;;;;;;5092250;28;20130;-78
2023/11/05 13:22:38;;;;;;;20.77;6.65;;;;;;;;;;5091227;28;20122;-78
2023/11/05 13:25:06;;;;;;;26.50;6.75;;;;;;;;;;5091455;28;20040;-78
2023/11/05 13:27:36;;;;;;;16.17;6.68;;;;;;;;;;5092405;28;20511;-77
2023/11/05 13:30:02;;;;;;;15.52;6.63;;;;;;;;;;5091758;28;20034;-77
2023/11/05 13:32:31;;;;;;;14.15;6.85;;;;;;;;;;5092539;28;20057;-77
2023/11/05 13:34:57;;;;;;;13.32;6.40;;;;;;;;;;5091484;28;20543;-77
2023/11/05 13:37:23;;;;;;;21.63;6.75;;;;;;;;;;5079709;28;20213;-77
2023/11/05 13:39:49;;;;;;;17.20;6.43;;;;;;;;;;5078637;28;20046;-78
2023/11/05 13:42:15;;;;;;;13.07;6.53;;;;;;;;;;5078988;28;20108;-78
2023/11/05 13:44:42;;;;;;;20.98;6.55;;;;;;;;;;5095179;28;20196;-78
2023/11/05 13:47:08;;;;;;;14.90;7.03;;;;;;;;;;5077967;28;20095;-77
2023/11/05 13:49:34;;;;;;;16.88;7.22;;;;;;;;;;5063807;28;20077;-76
2023/11/05 13:52:01;;;;;;;14.38;7.05;;;;;;;;;;5066461;28;20040;-77
2023/11/05 13:54:28;;;;;;;17.83;7.18;;;;;;;;;;5068614;28;20501;-78
2023/11/05 13:56:54;;;;;;;20.40;8.15;;;;;;;;;;5087771;28;20048;-76
2023/11/05 13:59:22;;;;;;;20.38;8.02;;;;;;;;;;5085059;28;20043;-77
2023/11/05 14:01:48;;;;;;;18.08;7.35;;;;;;;;;;5081501;28;20039;-77
2023/11/05 14:04:14;;;;;;;16.23;7.53;;;;;;;;;;5084130;28;20142;-77
2023/11/05 14:06:39;;;;;;;18.70;7.70;;;;;;;;;;5080695;28;20043;-78
2023/11/05 14:09:07;;;;;;;19.77;7.10;;;;;;;;;;5078803;28;20050;-77
2023/11/05 14:11:33;;;;;;;16.85;6.93;;;;;;;;;;5081033;28;20059;-77
2023/11/05 14:14:11;;;;;;;17.02;6.97;;;;;;;;;;5066443;28;20436;-78
2023/11/05 14:16:43;;;;;;;16.17;7.93;;;;;;;;;;5097405;28;20039;-78
2023/11/05 14:19:30;;;;;;;18.38;8.00;;;;;;;;;;5021307;28;20124;-78
2023/11/05 14:22:03;;;;;;;20.90;7.05;;;;;;;;;;5020227;28;20037;-78
2023/11/05 14:24:33;;;;;;;23.50;7.43;;;;;;;;;;5021042;28;20037;-78
2023/11/05 14:27:04;;;;;;;16.23;6.60;;;;;;;;;;4999979;28;20054;-78
2023/11/05 14:29:35;;;;;;;16.10;7.20;;;;;;;;;;4999364;28;20050;-80
2023/11/05 14:32:08;;;;;;;19.33;7.65;;;;;;;;;;4911480;29;20146;-77